sensor_id;sensor_type;location;lat;lon;timestamp;pressure;altitude;pressure_sealevel;temperature;humidity
52577;BME280;38469;53.562;10.048;2023-06-26T00:01:01;101261.41;;;21.95;100.00
52577;BME280;38469;53.562;10.048;2023-06-26T00:03:28;101259.50;;;21.99;100.00
52577;BME280;38469;53.562;10.048;2023-06-26T00:05:54;101253.41;;;21.97;100.00
52577;BME280;38469;53.562;10.048;2023-06-26T00:08:26;101248.25;;;21.99;100.00
52577;BME280;38469;53.562;10.048;2023-06-26T00:10:52;101249.00;;;21.96;100.00
52577;BME280;38469;53.562;10.048;2023-06-26T00:13:20;101247.44;;;21.83;100.00
52577;BME280;38469;53.562;10.048;2023-06-26T00:15:46;101245.25;;;21.76;100.00
52577;BME280;38469;53.562;10.048;2023-06-26T00:18:13;101244.53;;;21.95;100.00
52577;BME280;38469;53.562;10.048;2023-06-26T00:20:39;101236.81;;;21.92;100.00
52577;BME280;38469;53.562;10.048;2023-06-26T00:23:06;101235.72;;;21.96;100.00
52577;BME280;38469;53.562;10.048;2023-06-26T00:25:32;101244.69;;;22.02;100.00
52577;BME280;38469;53.562;10.048;2023-06-26T00:27:59;101223.41;;;21.85;100.00
52577;BME280;38469;53.562;10.048;2023-06-26T00:30:27;101242.00;;;21.90;100.00
52577;BME280;38469;53.562;10.048;2023-06-26T00:32:54;101241.19;;;21.89;100.00
52577;BME280;38469;53.562;10.048;2023-06-26T00:35:20;101238.72;;;21.88;100.00
52577;BME280;38469;53.562;10.048;2023-06-26T00:37:47;101242.75;;;21.87;100.00
52577;BME280;38469;53.562;10.048;2023-06-26T00:40:13;101231.66;;;21.94;100.00
52577;BME280;38469;53.562;10.048;2023-06-26T00:42:39;101219.56;;;21.78;100.00
52577;BME280;38469;53.562;10.048;2023-06-26T00:45:06;101217.78;;;21.85;100.00
52577;BME280;38469;53.562;10.048;2023-06-26T00:47:34;101228.41;;;21.92;100.00
52577;BME280;38469;53.562;10.048;2023-06-26T00:50:01;101225.19;;;21.78;100.00
52577;BME280;38469;53.562;10.048;2023-06-26T00:52:28;101226.00;;;21.63;100.00
52577;BME280;38469;53.562;10.048;2023-06-26T00:54:55;101217.75;;;21.70;100.00
52577;BME280;38469;53.562;10.048;2023-06-26T00:57:21;101220.75;;;21.77;100.00
52577;BME280;38469;53.562;10.048;2023-06-26T00:59:48;101217.47;;;21.75;100.00
52577;BME280;38469;53.562;10.048;2023-06-26T01:02:14;101212.97;;;21.86;100.00
52577;BME280;38469;53.562;10.048;2023-06-26T01:04:44;101200.84;;;21.82;100.00
52577;BME280;38469;53.562;10.048;2023-06-26T01:07:12;101217.94;;;21.77;100.00
52577;BME280;38469;53.562;10.048;2023-06-26T01:09:39;101212.09;;;21.82;100.00
52577;BME280;38469;53.562;10.048;2023-06-26T01:15:27;101199.50;;;21.64;100.00
52577;BME280;38469;53.562;10.048;2023-06-26T01:17:55;101201.81;;;21.58;100.00
52577;BME280;38469;53.562;10.048;2023-06-26T01:20:26;101205.50;;;21.47;100.00
52577;BME280;38469;53.562;10.048;2023-06-26T01:23:00;101198.88;;;21.55;100.00
52577;BME280;38469;53.562;10.048;2023-06-26T01:25:37;101186.56;;;21.59;100.00
52577;BME280;38469;53.562;10.048;2023-06-26T01:28:07;101203.78;;;21.73;100.00
52577;BME280;38469;53.562;10.048;2023-06-26T01:30:35;101199.25;;;21.69;100.00
52577;BME280;38469;53.562;10.048;2023-06-26T01:33:03;101192.84;;;21.53;100.00
52577;BME280;38469;53.562;10.048;2023-06-26T01:35:30;101193.72;;;21.41;100.00
52577;BME280;38469;53.562;10.048;2023-06-26T01:38:11;101199.16;;;21.50;100.00
52577;BME280;38469;53.562;10.048;2023-06-26T01:40:38;101177.69;;;21.57;100.00
52577;BME280;38469;53.562;10.048;2023-06-26T01:43:06;101174.41;;;21.55;100.00
52577;BME280;38469;53.562;10.048;2023-06-26T01:45:36;101171.78;;;21.47;100.00
52577;BME280;38469;53.562;10.048;2023-06-26T01:48:04;101170.50;;;21.28;100.00
52577;BME280;38469;53.562;10.048;2023-06-26T01:50:33;101170.41;;;21.41;100.00
52577;BME280;38469;53.562;10.048;2023-06-26T01:53:04;101167.44;;;21.33;100.00
52577;BME280;38469;53.562;10.048;2023-06-26T01:55:36;101168.88;;;21.43;100.00
52577;BME280;38469;53.562;10.048;2023-06-26T01:58:06;101165.06;;;21.36;100.00
52577;BME280;38469;53.562;10.048;2023-06-26T02:00:33;101165.91;;;21.36;100.00
52577;BME280;38469;53.562;10.048;2023-06-26T02:03:00;101159.72;;;21.30;100.00
52577;BME280;38469;53.562;10.048;2023-06-26T02:05:28;101158.63;;;21.19;100.00
52577;BME280;38469;53.562;10.048;2023-06-26T02:07:56;101151.41;;;21.34;100.00
52577;BME280;38469;53.562;10.048;2023-06-26T02:10:22;101148.59;;;21.34;100.00
52577;BME280;38469;53.562;10.048;2023-06-26T02:12:48;101149.66;;;21.14;100.00
52577;BME280;38469;53.562;10.048;2023-06-26T02:15:16;101147.47;;;21.07;100.00
52577;BME280;38469;53.562;10.048;2023-06-26T02:17:43;101151.72;;;21.01;100.00
52577;BME280;38469;53.562;10.048;2023-06-26T02:20:13;101141.13;;;21.10;100.00
52577;BME280;38469;53.562;10.048;2023-06-26T02:22:40;101140.97;;;21.19;100.00
52577;BME280;38469;53.562;10.048;2023-06-26T02:25:07;101142.34;;;20.97;100.00
52577;BME280;38469;53.562;10.048;2023-06-26T02:27:34;101140.69;;;21.08;100.00
52577;BME280;38469;53.562;10.048;2023-06-26T02:30:00;101127.84;;;20.95;100.00
52577;BME280;38469;53.562;10.048;2023-06-26T02:32:28;101140.59;;;21.20;100.00
52577;BME280;38469;53.562;10.048;2023-06-26T02:34:55;101145.56;;;21.11;100.00
52577;BME280;38469;53.562;10.048;2023-06-26T02:37:21;101135.88;;;21.24;100.00
52577;BME280;38469;53.562;10.048;2023-06-26T02:39:48;101135.78;;;21.21;100.00
52577;BME280;38469;53.562;10.048;2023-06-26T02:42:14;101137.31;;;21.18;100.00
52577;BME280;38469;53.562;10.048;2023-06-26T02:44:41;101132.53;;;21.19;100.00
52577;BME280;38469;53.562;10.048;2023-06-26T02:47:07;101121.38;;;21.22;100.00
52577;BME280;38469;53.562;10.048;2023-06-26T02:49:35;101118.66;;;21.10;100.00
52577;BME280;38469;53.562;10.048;2023-06-26T02:52:01;101119.88;;;20.97;100.00
52577;BME280;38469;53.562;10.048;2023-06-26T02:54:28;101125.81;;;21.08;100.00
52577;BME280;38469;53.562;10.048;2023-06-26T02:56:54;101125.25;;;21.02;100.00
52577;BME280;38469;53.562;10.048;2023-06-26T02:59:21;101117.47;;;21.11;100.00
52577;BME280;38469;53.562;10.048;2023-06-26T03:01:47;101114.91;;;20.91;100.00
52577;BME280;38469;53.562;10.048;2023-06-26T03:04:14;101120.00;;;21.01;100.00
52577;BME280;38469;53.562;10.048;2023-06-26T03:06:44;101112.88;;;21.03;100.00
52577;BME280;38469;53.562;10.048;2023-06-26T03:09:10;101113.13;;;21.14;100.00
52577;BME280;38469;53.562;10.048;2023-06-26T03:11:37;101109.50;;;21.13;100.00
52577;BME280;38469;53.562;10.048;2023-06-26T03:14:03;101108.22;;;21.11;100.00
52577;BME280;38469;53.562;10.048;2023-06-26T03:16:29;101101.81;;;21.10;100.00
52577;BME280;38469;53.562;10.048;2023-06-26T03:18:56;101103.25;;;21.04;100.00
52577;BME280;38469;53.562;10.048;2023-06-26T03:21:22;101100.91;;;21.06;100.00
52577;BME280;38469;53.562;10.048;2023-06-26T03:23:50;101105.53;;;21.14;100.00
52577;BME280;38469;53.562;10.048;2023-06-26T03:26:16;101099.38;;;21.09;100.00
52577;BME280;38469;53.562;10.048;2023-06-26T03:28:43;101099.38;;;21.09;100.00
52577;BME280;38469;53.562;10.048;2023-06-26T03:31:09;101102.00;;;21.17;100.00
52577;BME280;38469;53.562;10.048;2023-06-26T03:33:37;101074.13;;;20.97;100.00
52577;BME280;38469;53.562;10.048;2023-06-26T03:36:04;101102.19;;;21.24;100.00
52577;BME280;38469;53.562;10.048;2023-06-26T03:38:31;101105.97;;;21.16;100.00
52577;BME280;38469;53.562;10.048;2023-06-26T03:40:59;101100.06;;;21.06;100.00
52577;BME280;38469;53.562;10.048;2023-06-26T03:43:25;101101.09;;;21.13;100.00
52577;BME280;38469;53.562;10.048;2023-06-26T03:45:52;101099.28;;;21.05;100.00
52577;BME280;38469;53.562;10.048;2023-06-26T03:48:18;101101.06;;;20.98;100.00
52577;BME280;38469;53.562;10.048;2023-06-26T03:50:44;101081.69;;;21.08;100.00
52577;BME280;38469;53.562;10.048;2023-06-26T03:53:11;101073.56;;;21.03;100.00
52577;BME280;38469;53.562;10.048;2023-06-26T03:55:38;101076.44;;;21.22;100.00
52577;BME280;38469;53.562;10.048;2023-06-26T03:58:05;101078.50;;;21.25;100.00
52577;BME280;38469;53.562;10.048;2023-06-26T04:00:32;101072.72;;;21.18;100.00
52577;BME280;38469;53.562;10.048;2023-06-26T04:02:58;101066.09;;;21.26;100.00
52577;BME280;38469;53.562;10.048;2023-06-26T04:05:25;101066.75;;;21.20;100.00
52577;BME280;38469;53.562;10.048;2023-06-26T04:07:51;101074.16;;;21.28;100.00
52577;BME280;38469;53.562;10.048;2023-06-26T04:10:18;101057.94;;;21.37;100.00
52577;BME280;38469;53.562;10.048;2023-06-26T04:12:45;101074.66;;;21.14;100.00
52577;BME280;38469;53.562;10.048;2023-06-26T04:15:13;101068.56;;;21.12;100.00
52577;BME280;38469;53.562;10.048;2023-06-26T04:17:40;101062.38;;;21.22;100.00
52577;BME280;38469;53.562;10.048;2023-06-26T04:20:07;101067.47;;;21.33;100.00
52577;BME280;38469;53.562;10.048;2023-06-26T04:22:34;101061.03;;;21.32;100.00
52577;BME280;38469;53.562;10.048;2023-06-26T04:25:02;101059.91;;;21.37;100.00
52577;BME280;38469;53.562;10.048;2023-06-26T04:27:29;101053.69;;;21.43;100.00
52577;BME280;38469;53.562;10.048;2023-06-26T04:29:56;101058.63;;;21.50;100.00
52577;BME280;38469;53.562;10.048;2023-06-26T04:32:24;101062.81;;;21.56;100.00
52577;BME280;38469;53.562;10.048;2023-06-26T04:34:50;101059.09;;;21.52;100.00
52577;BME280;38469;53.562;10.048;2023-06-26T04:37:17;101043.38;;;21.82;100.00
52577;BME280;38469;53.562;10.048;2023-06-26T04:39:43;101041.72;;;21.81;100.00
52577;BME280;38469;53.562;10.048;2023-06-26T04:42:09;101050.03;;;21.58;100.00
52577;BME280;38469;53.562;10.048;2023-06-26T04:44:37;101034.88;;;21.63;100.00
52577;BME280;38469;53.562;10.048;2023-06-26T04:47:04;101037.63;;;21.78;100.00
52577;BME280;38469;53.562;10.048;2023-06-26T04:49:32;101034.78;;;21.78;100.00
52577;BME280;38469;53.562;10.048;2023-06-26T04:51:58;101027.38;;;21.86;100.00
52577;BME280;38469;53.562;10.048;2023-06-26T04:54:25;101022.06;;;22.00;100.00
52577;BME280;38469;53.562;10.048;2023-06-26T04:56:52;101029.75;;;22.03;100.00
52577;BME280;38469;53.562;10.048;2023-06-26T04:59:19;101026.94;;;22.03;100.00
52577;BME280;38469;53.562;10.048;2023-06-26T05:01:45;101022.06;;;22.00;100.00
52577;BME280;38469;53.562;10.048;2023-06-26T05:04:13;101015.09;;;22.13;100.00
52577;BME280;38469;53.562;10.048;2023-06-26T05:06:44;101017.72;;;22.44;100.00
52577;BME280;38469;53.562;10.048;2023-06-26T05:09:10;101018.03;;;22.39;100.00
52577;BME280;38469;53.562;10.048;2023-06-26T05:11:37;101020.69;;;22.51;100.00
52577;BME280;38469;53.562;10.048;2023-06-26T05:14:03;101013.72;;;22.64;100.00
52577;BME280;38469;53.562;10.048;2023-06-26T05:16:32;101015.94;;;22.74;100.00
52577;BME280;38469;53.562;10.048;2023-06-26T05:18:59;101019.75;;;22.85;100.00
52577;BME280;38469;53.562;10.048;2023-06-26T05:21:25;101011.47;;;22.73;99.32
52577;BME280;38469;53.562;10.048;2023-06-26T05:23:56;101005.13;;;22.76;99.12
52577;BME280;38469;53.562;10.048;2023-06-26T05:26:23;101002.72;;;23.01;97.93
52577;BME280;38469;53.562;10.048;2023-06-26T05:28:50;100996.09;;;22.67;98.68
52577;BME280;38469;53.562;10.048;2023-06-26T05:31:17;100990.72;;;22.81;98.06
52577;BME280;38469;53.562;10.048;2023-06-26T05:33:44;100991.50;;;23.04;97.24
52577;BME280;38469;53.562;10.048;2023-06-26T05:36:12;100986.34;;;23.10;96.06
52577;BME280;38469;53.562;10.048;2023-06-26T05:38:39;100981.25;;;23.42;95.48
52577;BME280;38469;53.562;10.048;2023-06-26T05:41:08;100985.25;;;23.41;93.80
52577;BME280;38469;53.562;10.048;2023-06-26T05:43:34;100983.03;;;23.04;93.99
52577;BME280;38469;53.562;10.048;2023-06-26T05:46:01;100979.78;;;23.02;94.36
52577;BME280;38469;53.562;10.048;2023-06-26T05:48:27;100981.72;;;23.21;94.85
52577;BME280;38469;53.562;10.048;2023-06-26T05:50:54;100971.88;;;23.11;94.02
52577;BME280;38469;53.562;10.048;2023-06-26T05:53:21;100974.03;;;23.44;93.08
52577;BME280;38469;53.562;10.048;2023-06-26T05:58:17;100976.09;;;23.77;91.01
52577;BME280;38469;53.562;10.048;2023-06-26T06:00:44;100964.81;;;23.47;92.17
52577;BME280;38469;53.562;10.048;2023-06-26T06:03:10;100965.72;;;23.55;91.06
52577;BME280;38469;53.562;10.048;2023-06-26T06:05:36;100969.00;;;23.90;91.53
52577;BME280;38469;53.562;10.048;2023-06-26T06:08:03;100966.91;;;24.13;89.18
52577;BME280;38469;53.562;10.048;2023-06-26T06:10:30;100961.69;;;24.15;87.40
52577;BME280;38469;53.562;10.048;2023-06-26T06:12:56;100961.19;;;24.06;88.30
52577;BME280;38469;53.562;10.048;2023-06-26T06:15:24;100964.69;;;24.29;86.67
52577;BME280;38469;53.562;10.048;2023-06-26T06:17:51;100963.16;;;24.39;86.26
52577;BME280;38469;53.562;10.048;2023-06-26T06:20:17;100963.16;;;24.75;84.68
52577;BME280;38469;53.562;10.048;2023-06-26T06:22:44;100964.97;;;25.01;83.15
52577;BME280;38469;53.562;10.048;2023-06-26T06:25:11;100963.22;;;25.37;82.29
52577;BME280;38469;53.562;10.048;2023-06-26T06:27:37;100954.03;;;26.43;76.49
52577;BME280;38469;53.562;10.048;2023-06-26T06:30:05;100951.53;;;27.79;67.79
52577;BME280;38469;53.562;10.048;2023-06-26T06:32:33;100941.56;;;28.26;62.34
52577;BME280;38469;53.562;10.048;2023-06-26T06:35:00;100947.22;;;28.36;62.26
52577;BME280;38469;53.562;10.048;2023-06-26T06:37:33;100940.03;;;28.17;63.04
52577;BME280;38469;53.562;10.048;2023-06-26T06:40:00;100939.41;;;27.68;64.38
52577;BME280;38469;53.562;10.048;2023-06-26T06:42:26;100944.63;;;27.83;64.82
52577;BME280;38469;53.562;10.048;2023-06-26T06:44:53;100939.84;;;28.42;62.79
52577;BME280;38469;53.562;10.048;2023-06-26T06:47:19;100931.94;;;29.22;59.11
52577;BME280;38469;53.562;10.048;2023-06-26T06:49:47;100930.78;;;29.90;57.21
52577;BME280;38469;53.562;10.048;2023-06-26T06:52:13;100928.34;;;30.19;55.96
52577;BME280;38469;53.562;10.048;2023-06-26T06:54:53;100923.06;;;30.48;54.15
52577;BME280;38469;53.562;10.048;2023-06-26T06:57:19;100915.03;;;30.92;53.12
52577;BME280;38469;53.562;10.048;2023-06-26T06:59:46;100918.50;;;31.03;52.33
52577;BME280;38469;53.562;10.048;2023-06-26T07:02:13;100912.22;;;31.55;50.99
52577;BME280;38469;53.562;10.048;2023-06-26T07:04:40;100899.94;;;31.97;49.30
52577;BME280;38469;53.562;10.048;2023-06-26T07:07:08;100904.34;;;32.01;47.70
52577;BME280;38469;53.562;10.048;2023-06-26T07:09:35;100922.41;;;32.50;47.14
52577;BME280;38469;53.562;10.048;2023-06-26T07:12:01;100917.06;;;33.17;46.73
52577;BME280;38469;53.562;10.048;2023-06-26T07:14:28;100921.47;;;34.07;43.71
52577;BME280;38469;53.562;10.048;2023-06-26T07:16:55;100916.53;;;35.08;40.83
52577;BME280;38469;53.562;10.048;2023-06-26T07:19:21;100919.38;;;36.50;39.63
52577;BME280;38469;53.562;10.048;2023-06-26T07:21:48;100917.72;;;37.29;36.77
52577;BME280;38469;53.562;10.048;2023-06-26T07:24:15;100920.41;;;38.55;35.08
52577;BME280;38469;53.562;10.048;2023-06-26T07:26:42;100924.13;;;38.89;33.31
52577;BME280;38469;53.562;10.048;2023-06-26T07:29:08;100921.69;;;38.54;33.85
52577;BME280;38469;53.562;10.048;2023-06-26T07:31:35;100922.16;;;38.95;33.89
52577;BME280;38469;53.562;10.048;2023-06-26T07:34:01;100909.97;;;39.38;32.14
52577;BME280;38469;53.562;10.048;2023-06-26T07:36:28;100917.72;;;39.32;32.18
52577;BME280;38469;53.562;10.048;2023-06-26T07:38:54;100934.41;;;39.75;31.93
52577;BME280;38469;53.562;10.048;2023-06-26T07:41:22;100937.34;;;38.71;32.71
52577;BME280;38469;53.562;10.048;2023-06-26T07:43:48;100927.19;;;37.74;33.78
52577;BME280;38469;53.562;10.048;2023-06-26T07:46:15;100908.16;;;36.83;35.88
52577;BME280;38469;53.562;10.048;2023-06-26T07:48:41;100907.44;;;36.61;37.13
52577;BME280;38469;53.562;10.048;2023-06-26T07:51:08;100916.41;;;36.32;36.70
52577;BME280;38469;53.562;10.048;2023-06-26T07:53:34;100879.41;;;35.14;39.47
52577;BME280;38469;53.562;10.048;2023-06-26T07:56:01;100898.13;;;35.18;40.80
52577;BME280;38469;53.562;10.048;2023-06-26T07:58:28;100902.47;;;34.63;42.00
52577;BME280;38469;53.562;10.048;2023-06-26T08:00:55;100904.06;;;34.39;41.96
52577;BME280;38469;53.562;10.048;2023-06-26T08:03:21;100911.47;;;33.99;41.56
52577;BME280;38469;53.562;10.048;2023-06-26T08:05:48;100900.38;;;33.44;43.71
52577;BME280;38469;53.562;10.048;2023-06-26T08:08:15;100892.72;;;33.25;44.05
52577;BME280;38469;53.562;10.048;2023-06-26T08:10:42;100886.06;;;33.28;45.66
52577;BME280;38469;53.562;10.048;2023-06-26T08:13:08;100894.59;;;33.15;45.26
52577;BME280;38469;53.562;10.048;2023-06-26T08:15:36;100881.84;;;32.87;46.20
52577;BME280;38469;53.562;10.048;2023-06-26T08:18:03;100876.50;;;32.57;45.42
52577;BME280;38469;53.562;10.048;2023-06-26T08:20:29;100859.22;;;31.93;46.75
52577;BME280;38469;53.562;10.048;2023-06-26T08:22:56;100863.78;;;31.71;47.44
52577;BME280;38469;53.562;10.048;2023-06-26T08:25:22;100858.19;;;32.19;46.66
52577;BME280;38469;53.562;10.048;2023-06-26T08:27:48;100847.72;;;32.48;46.99
52577;BME280;38469;53.562;10.048;2023-06-26T08:30:17;100851.09;;;32.75;45.41
52577;BME280;38469;53.562;10.048;2023-06-26T08:32:45;100839.75;;;32.56;46.13
52577;BME280;38469;53.562;10.048;2023-06-26T08:35:11;100851.06;;;32.91;46.53
52577;BME280;38469;53.562;10.048;2023-06-26T08:37:38;100852.34;;;32.90;44.97
52577;BME280;38469;53.562;10.048;2023-06-26T08:40:06;100840.47;;;32.76;45.60
52577;BME280;38469;53.562;10.048;2023-06-26T08:42:33;100852.88;;;32.53;45.57
52577;BME280;38469;53.562;10.048;2023-06-26T08:45:00;100853.22;;;32.39;46.12
52577;BME280;38469;53.562;10.048;2023-06-26T08:47:27;100860.31;;;32.67;46.65
52577;BME280;38469;53.562;10.048;2023-06-26T08:50:01;100864.88;;;31.96;44.42
52577;BME280;38469;53.562;10.048;2023-06-26T08:52:31;100858.84;;;31.71;46.50
52577;BME280;38469;53.562;10.048;2023-06-26T08:55:02;100871.94;;;31.30;46.86
52577;BME280;38469;53.562;10.048;2023-06-26T08:57:30;100894.91;;;30.76;48.45
52577;BME280;38469;53.562;10.048;2023-06-26T08:59:57;100873.50;;;30.42;48.39
52577;BME280;38469;53.562;10.048;2023-06-26T09:02:25;100892.16;;;30.69;48.61
52577;BME280;38469;53.562;10.048;2023-06-26T09:04:51;100882.91;;;30.88;47.23
52577;BME280;38469;53.562;10.048;2023-06-26T09:07:19;100902.41;;;30.67;48.53
52577;BME280;38469;53.562;10.048;2023-06-26T09:09:46;100911.97;;;30.80;49.05
52577;BME280;38469;53.562;10.048;2023-06-26T09:12:13;100920.41;;;30.60;51.41
52577;BME280;38469;53.562;10.048;2023-06-26T09:14:39;100908.47;;;30.42;52.01
52577;BME280;38469;53.562;10.048;2023-06-26T09:17:06;100921.63;;;30.36;51.69
52577;BME280;38469;53.562;10.048;2023-06-26T09:19:32;100921.56;;;29.79;54.00
52577;BME280;38469;53.562;10.048;2023-06-26T09:22:01;100930.53;;;29.78;55.68
52577;BME280;38469;53.562;10.048;2023-06-26T09:24:30;100945.41;;;29.55;55.21
52577;BME280;38469;53.562;10.048;2023-06-26T09:26:57;100952.22;;;29.65;55.91
52577;BME280;38469;53.562;10.048;2023-06-26T09:29:23;100942.22;;;29.87;56.66
52577;BME280;38469;53.562;10.048;2023-06-26T09:31:52;100926.22;;;29.96;55.05
52577;BME280;38469;53.562;10.048;2023-06-26T09:34:19;100937.09;;;30.05;55.53
52577;BME280;38469;53.562;10.048;2023-06-26T09:36:45;100939.75;;;30.19;54.16
52577;BME280;38469;53.562;10.048;2023-06-26T09:39:13;100937.38;;;30.14;53.95
52577;BME280;38469;53.562;10.048;2023-06-26T09:41:43;100960.16;;;29.47;55.86
52577;BME280;38469;53.562;10.048;2023-06-26T09:44:11;100907.53;;;29.25;58.27
52577;BME280;38469;53.562;10.048;2023-06-26T09:46:38;100941.66;;;29.25;57.45
52577;BME280;38469;53.562;10.048;2023-06-26T09:49:06;100962.53;;;28.56;59.89
52577;BME280;38469;53.562;10.048;2023-06-26T09:51:33;100952.81;;;28.47;60.62
52577;BME280;38469;53.562;10.048;2023-06-26T09:54:00;100967.75;;;27.82;62.53
52577;BME280;38469;53.562;10.048;2023-06-26T09:56:28;100983.16;;;27.77;64.16
52577;BME280;38469;53.562;10.048;2023-06-26T09:58:57;100979.16;;;27.61;65.71
52577;BME280;38469;53.562;10.048;2023-06-26T10:01:24;100987.72;;;27.40;67.37
52577;BME280;38469;53.562;10.048;2023-06-26T10:03:51;100985.69;;;26.94;72.32
52577;BME280;38469;53.562;10.048;2023-06-26T10:06:19;100986.91;;;26.93;73.91
52577;BME280;38469;53.562;10.048;2023-06-26T10:08:49;100984.06;;;26.69;76.11
52577;BME280;38469;53.562;10.048;2023-06-26T10:11:19;100983.19;;;26.44;76.32
52577;BME280;38469;53.562;10.048;2023-06-26T10:13:50;100992.00;;;26.28;78.13
52577;BME280;38469;53.562;10.048;2023-06-26T10:16:23;101007.22;;;25.95;79.63
52577;BME280;38469;53.562;10.048;2023-06-26T10:18:53;101013.13;;;25.69;83.18
52577;BME280;38469;53.562;10.048;2023-06-26T10:21:20;101016.69;;;25.52;88.00
52577;BME280;38469;53.562;10.048;2023-06-26T10:23:48;101042.47;;;24.96;92.88
52577;BME280;38469;53.562;10.048;2023-06-26T10:26:16;101049.31;;;23.96;100.00
52577;BME280;38469;53.562;10.048;2023-06-26T10:28:46;101063.00;;;23.68;100.00
52577;BME280;38469;53.562;10.048;2023-06-26T10:31:21;101061.31;;;23.14;100.00
52577;BME280;38469;53.562;10.048;2023-06-26T10:33:49;101075.78;;;22.71;100.00
52577;BME280;38469;53.562;10.048;2023-06-26T10:36:17;101082.78;;;22.39;100.00
52577;BME280;38469;53.562;10.048;2023-06-26T10:38:48;101041.16;;;22.10;100.00
52577;BME280;38469;53.562;10.048;2023-06-26T10:41:19;101088.25;;;22.32;100.00
52577;BME280;38469;53.562;10.048;2023-06-26T10:43:49;101076.97;;;21.94;100.00
52577;BME280;38469;53.562;10.048;2023-06-26T10:46:15;101079.00;;;21.78;100.00
52577;BME280;38469;53.562;10.048;2023-06-26T10:48:57;101108.16;;;22.04;100.00
52577;BME280;38469;53.562;10.048;2023-06-26T10:51:25;101103.50;;;22.12;100.00
52577;BME280;38469;53.562;10.048;2023-06-26T10:53:54;101112.94;;;22.04;100.00
52577;BME280;38469;53.562;10.048;2023-06-26T10:56:20;101107.31;;;21.85;100.00
52577;BME280;38469;53.562;10.048;2023-06-26T10:58:47;101114.38;;;21.94;100.00
52577;BME280;38469;53.562;10.048;2023-06-26T11:01:16;101098.13;;;21.88;100.00
52577;BME280;38469;53.562;10.048;2023-06-26T11:03:45;101119.00;;;21.87;100.00
52577;BME280;38469;53.562;10.048;2023-06-26T11:06:17;101114.22;;;22.06;100.00
52577;BME280;38469;53.562;10.048;2023-06-26T11:08:44;101118.16;;;22.40;100.00
52577;BME280;38469;53.562;10.048;2023-06-26T11:11:11;101120.69;;;22.26;100.00
52577;BME280;38469;53.562;10.048;2023-06-26T11:13:39;101106.38;;;22.34;100.00
52577;BME280;38469;53.562;10.048;2023-06-26T11:16:05;101128.41;;;22.86;100.00
52577;BME280;38469;53.562;10.048;2023-06-26T11:18:32;101128.47;;;23.32;100.00
52577;BME280;38469;53.562;10.048;2023-06-26T11:21:05;101125.81;;;23.19;100.00
52577;BME280;38469;53.562;10.048;2023-06-26T11:23:33;101116.72;;;23.07;100.00
52577;BME280;38469;53.562;10.048;2023-06-26T11:26:13;101125.19;;;22.88;100.00
52577;BME280;38469;53.562;10.048;2023-06-26T11:28:45;101126.84;;;22.89;100.00
52577;BME280;38469;53.562;10.048;2023-06-26T11:31:24;101116.28;;;22.63;100.00
52577;BME280;38469;53.562;10.048;2023-06-26T11:33:50;101142.47;;;23.05;100.00
52577;BME280;38469;53.562;10.048;2023-06-26T11:36:17;101137.75;;;23.13;100.00
52577;BME280;38469;53.562;10.048;2023-06-26T11:38:44;101139.13;;;23.22;100.00
52577;BME280;38469;53.562;10.048;2023-06-26T11:41:16;101152.13;;;23.50;100.00
52577;BME280;38469;53.562;10.048;2023-06-26T11:43:43;101154.19;;;23.30;100.00
52577;BME280;38469;53.562;10.048;2023-06-26T11:46:09;101156.47;;;23.24;100.00
52577;BME280;38469;53.562;10.048;2023-06-26T11:48:36;101163.88;;;23.29;100.00
52577;BME280;38469;53.562;10.048;2023-06-26T11:51:04;101157.53;;;23.36;100.00
52577;BME280;38469;53.562;10.048;2023-06-26T11:53:30;101171.78;;;23.23;100.00
52577;BME280;38469;53.562;10.048;2023-06-26T11:55:58;101160.97;;;23.06;100.00
52577;BME280;38469;53.562;10.048;2023-06-26T11:58:26;101170.69;;;23.09;100.00
52577;BME280;38469;53.562;10.048;2023-06-26T12:00:55;101156.56;;;23.28;100.00
52577;BME280;38469;53.562;10.048;2023-06-26T12:03:21;101177.03;;;23.25;100.00
52577;BME280;38469;53.562;10.048;2023-06-26T12:05:48;101183.19;;;22.89;100.00
52577;BME280;38469;53.562;10.048;2023-06-26T12:08:16;101189.47;;;23.01;99.93
52577;BME280;38469;53.562;10.048;2023-06-26T12:10:43;101180.84;;;23.13;98.61
52577;BME280;38469;53.562;10.048;2023-06-26T12:13:12;101177.94;;;23.52;99.19
52577;BME280;38469;53.562;10.048;2023-06-26T12:15:39;101181.31;;;23.83;98.22
52577;BME280;38469;53.562;10.048;2023-06-26T12:18:08;101181.69;;;23.82;98.19
52577;BME280;38469;53.562;10.048;2023-06-26T12:20:39;101173.19;;;23.56;96.30
52577;BME280;38469;53.562;10.048;2023-06-26T12:23:11;101184.94;;;23.39;98.95
52577;BME280;38469;53.562;10.048;2023-06-26T12:25:38;101192.41;;;23.08;98.24
52577;BME280;38469;53.562;10.048;2023-06-26T12:28:16;101196.94;;;23.32;99.93
52577;BME280;38469;53.562;10.048;2023-06-26T12:30:46;101198.31;;;23.22;99.04
52577;BME280;38469;53.562;10.048;2023-06-26T12:33:13;101192.25;;;23.20;95.61
52577;BME280;38469;53.562;10.048;2023-06-26T12:35:40;101201.75;;;22.93;91.47
52577;BME280;38469;53.562;10.048;2023-06-26T12:38:07;101192.69;;;23.22;90.24
52577;BME280;38469;53.562;10.048;2023-06-26T12:40:35;101197.59;;;23.06;89.58
52577;BME280;38469;53.562;10.048;2023-06-26T12:43:11;101195.53;;;23.03;89.80